Time;durP1;ratioP1;P1;durP2;ratioP2;P2;SDS_P1;SDS_P2;PMS_P1;PMS_P2;Temp;Humidity;BMP_temperature;BMP_pressure;BME280_temperature;BME280_humidity;BME280_pressure;Samples;Min_cycle;Max_cycle;Signal;HPM_P1;HPM_P2
2022/09/16 00:02:00;;;;;;;3.90;1.60;;;12.10;99.90;;;;;;5003504;28;20234;-72
2022/09/16 00:04:27;;;;;;;8.15;1.30;;;12.20;99.90;;;;;;5007786;28;20206;-73
2022/09/16 00:06:54;;;;;;;5.85;1.35;;;12.20;99.90;;;;;;5004116;28;20258;-73
2022/09/16 00:09:21;;;;;;;3.47;1.30;;;12.20;99.90;;;;;;5008896;28;20245;-72
2022/09/16 00:11:48;;;;;;;2.35;1.45;;;12.20;99.90;;;;;;5009269;28;20290;-73
2022/09/16 00:14:14;;;;;;;3.60;1.30;;;12.30;99.90;;;;;;5004607;28;20238;-74
2022/09/16 00:16:42;;;;;;;2.45;1.40;;;12.20;99.90;;;;;;5005214;28;20231;-74
2022/09/16 00:19:11;;;;;;;6.80;1.73;;;12.20;99.90;;;;;;4997229;28;20202;-74
2022/09/16 00:21:38;;;;;;;5.82;1.77;;;12.20;99.90;;;;;;5003577;28;20227;-73
2022/09/16 00:24:06;;;;;;;4.25;2.10;;;12.20;99.90;;;;;;5016929;28;20211;-74
2022/09/16 00:26:33;;;;;;;2.42;1.58;;;12.10;99.90;;;;;;5006449;28;20614;-73
2022/09/16 00:29:00;;;;;;;5.53;1.38;;;12.10;99.90;;;;;;5000902;28;20219;-73
2022/09/16 00:31:27;;;;;;;5.10;2.33;;;12.00;99.90;;;;;;5008698;28;20239;-72
2022/09/16 00:33:54;;;;;;;7.63;2.08;;;12.00;99.90;;;;;;5005828;28;20233;-72
2022/09/16 00:36:22;;;;;;;10.35;2.10;;;12.00;99.90;;;;;;5001725;28;20288;-74
2022/09/16 00:38:52;;;;;;;4.20;1.50;;;12.00;99.90;;;;;;5016485;28;20231;-75
2022/09/16 00:41:21;;;;;;;2.35;1.60;;;12.00;99.90;;;;;;5018941;28;20193;-73
2022/09/16 00:43:50;;;;;;;3.65;1.77;;;11.90;99.90;;;;;;5035406;28;20202;-74
2022/09/16 00:46:36;;;;;;;2.10;1.60;;;12.00;99.90;;;;;;5030000;28;20238;-74
2022/09/16 00:49:09;;;;;;;6.25;1.83;;;12.10;99.90;;;;;;5030248;28;20228;-73
2022/09/16 00:51:38;;;;;;;6.82;1.58;;;12.10;99.90;;;;;;4998559;28;20292;-75
2022/09/16 00:54:38;;;;;;;7.38;2.03;;;12.10;99.90;;;;;;5022190;28;20210;-74
2022/09/16 00:57:09;;;;;;;6.75;1.52;;;12.30;99.90;;;;;;5011830;28;20226;-74
2022/09/16 00:59:38;;;;;;;3.47;1.40;;;12.40;99.90;;;;;;5023436;28;20207;-72
2022/09/16 01:02:09;;;;;;;5.82;1.77;;;12.40;99.90;;;;;;5018384;28;20288;-72
2022/09/16 01:04:41;;;;;;;4.30;1.60;;;12.50;99.90;;;;;;5001566;28;20218;-73
2022/09/16 01:07:10;;;;;;;3.40;2.10;;;12.50;99.90;;;;;;5011197;28;20245;-73
2022/09/16 01:09:38;;;;;;;7.32;2.28;;;12.60;99.90;;;;;;5013680;28;20236;-73
2022/09/16 01:12:06;;;;;;;4.68;2.00;;;12.60;99.90;;;;;;5012649;28;20572;-73
2022/09/16 01:17:27;;;;;;;5.80;2.20;;;12.50;99.90;;;;;;5009681;28;20273;-71
2022/09/16 01:20:17;;;;;;;6.78;2.40;;;12.40;99.90;;;;;;5007998;28;20266;-72
2022/09/16 01:23:01;;;;;;;8.43;2.25;;;12.20;99.90;;;;;;5000245;28;20208;-72
2022/09/16 01:25:42;;;;;;;4.38;2.30;;;12.10;99.90;;;;;;5012540;28;20208;-72
2022/09/16 01:28:29;;;;;;;7.28;2.30;;;12.10;99.90;;;;;;4993294;28;20317;-73
2022/09/16 01:31:08;;;;;;;6.65;2.40;;;12.10;99.90;;;;;;4995781;28;20209;-73
2022/09/16 01:33:44;;;;;;;8.15;3.10;;;12.10;99.90;;;;;;4998200;28;20303;-73
2022/09/16 01:36:27;;;;;;;8.23;2.33;;;12.10;99.90;;;;;;4992006;28;20286;-74
2022/09/16 01:39:06;;;;;;;8.95;2.33;;;12.00;99.90;;;;;;4994938;28;20586;-72
2022/09/16 01:41:43;;;;;;;7.50;2.25;;;12.10;99.90;;;;;;5013742;28;20212;-72
2022/09/16 01:44:19;;;;;;;8.70;2.38;;;12.10;99.90;;;;;;5015460;28;20203;-73
2022/09/16 01:46:51;;;;;;;5.90;2.10;;;12.10;99.90;;;;;;5006815;28;20238;-74
2022/09/16 01:49:22;;;;;;;6.00;2.00;;;12.00;99.90;;;;;;5002202;28;20234;-73
2022/09/16 01:51:57;;;;;;;6.72;2.15;;;12.00;99.90;;;;;;5013878;28;20685;-74
2022/09/16 01:54:32;;;;;;;4.82;2.20;;;11.90;99.90;;;;;;5009526;28;20203;-74
2022/09/16 01:57:03;;;;;;;7.57;2.90;;;12.00;99.90;;;;;;5002635;28;20250;-73
2022/09/16 01:59:38;;;;;;;9.02;2.65;;;11.90;99.90;;;;;;5013659;28;20205;-74
2022/09/16 02:02:13;;;;;;;2.25;1.90;;;11.90;99.90;;;;;;5004546;28;20209;-73
2022/09/16 02:04:46;;;;;;;8.18;2.50;;;11.90;99.90;;;;;;5014948;28;20201;-73
2022/09/16 02:07:17;;;;;;;5.72;1.83;;;11.90;99.90;;;;;;5007158;28;20626;-72
2022/09/16 02:09:49;;;;;;;4.63;2.10;;;11.90;99.90;;;;;;5014412;28;20322;-74
2022/09/16 02:12:22;;;;;;;4.93;1.60;;;11.90;99.90;;;;;;5006944;28;20292;-73
2022/09/16 02:14:51;;;;;;;5.95;2.35;;;12.00;99.90;;;;;;5018380;28;20310;-73
2022/09/16 02:17:24;;;;;;;6.70;1.80;;;12.00;99.90;;;;;;5012008;28;20311;-73
2022/09/16 02:19:56;;;;;;;8.60;2.67;;;12.00;99.90;;;;;;5009654;28;20207;-72
2022/09/16 02:22:29;;;;;;;5.47;1.88;;;12.00;99.90;;;;;;5013491;28;20204;-73
2022/09/16 02:24:57;;;;;;;5.82;1.90;;;12.00;99.90;;;;;;5010050;28;20207;-73
2022/09/16 02:27:29;;;;;;;6.72;1.90;;;12.00;99.90;;;;;;5010363;28;20222;-72
2022/09/16 02:30:01;;;;;;;11.32;3.17;;;12.00;99.90;;;;;;5010914;28;20258;-72
2022/09/16 02:32:32;;;;;;;3.53;1.42;;;12.00;99.90;;;;;;5005855;28;20213;-73
2022/09/16 02:35:00;;;;;;;4.78;1.75;;;12.10;99.90;;;;;;5010464;28;20210;-73
2022/09/16 02:37:31;;;;;;;3.03;2.05;;;12.00;99.90;;;;;;5009412;28;20218;-73
2022/09/16 02:40:04;;;;;;;3.95;1.80;;;12.20;99.90;;;;;;5012000;28;20204;-73
2022/09/16 02:42:31;;;;;;;6.28;3.80;;;12.20;99.90;;;;;;4991396;28;20211;-73
2022/09/16 02:45:00;;;;;;;4.30;1.80;;;12.20;99.90;;;;;;5010082;28;20208;-73
2022/09/16 02:47:32;;;;;;;4.63;1.77;;;12.30;99.90;;;;;;5007368;28;20251;-73
2022/09/16 02:50:04;;;;;;;5.43;2.20;;;12.30;99.90;;;;;;5009875;28;20231;-73
2022/09/16 02:52:39;;;;;;;5.20;1.63;;;12.20;99.90;;;;;;5026341;28;20238;-72
2022/09/16 02:55:13;;;;;;;3.00;1.88;;;12.20;99.90;;;;;;5021891;28;20330;-71
2022/09/16 02:57:40;;;;;;;12.20;2.22;;;12.20;99.90;;;;;;4996586;28;20225;-72
2022/09/16 03:00:09;;;;;;;4.65;1.45;;;12.10;99.90;;;;;;5013658;28;20203;-73
2022/09/16 03:02:37;;;;;;;2.70;1.55;;;12.10;99.90;;;;;;5010902;28;20290;-73
2022/09/16 03:05:05;;;;;;;2.15;1.48;;;12.10;99.90;;;;;;5012449;28;20210;-72
2022/09/16 03:07:33;;;;;;;2.22;1.33;;;12.00;99.90;;;;;;5010910;28;20227;-73
2022/09/16 03:10:00;;;;;;;8.07;1.60;;;11.90;99.90;;;;;;4998051;28;20247;-73
2022/09/16 03:12:58;;;;;;;4.10;1.55;;;11.80;99.90;;;;;;5012413;28;20575;-74
2022/09/16 03:15:48;;;;;;;6.00;1.63;;;11.80;99.90;;;;;;4965356;28;20208;-71
2022/09/16 03:18:30;;;;;;;6.80;1.40;;;11.70;99.90;;;;;;5020807;28;20232;-73
2022/09/16 03:21:05;;;;;;;5.35;1.98;;;11.60;99.90;;;;;;4990918;28;20207;-73
2022/09/16 03:23:43;;;;;;;3.70;1.90;;;11.60;99.90;;;;;;5008751;28;20706;-72
2022/09/16 03:26:19;;;;;;;2.17;1.33;;;11.60;99.90;;;;;;5008753;28;20205;-73
2022/09/16 03:28:53;;;;;;;4.00;2.30;;;11.60;99.90;;;;;;4987342;28;20678;-74
2022/09/16 03:31:26;;;;;;;6.07;1.08;;;11.60;99.90;;;;;;4995242;28;20554;-73
2022/09/16 03:34:03;;;;;;;6.57;2.65;;;11.60;99.90;;;;;;5009701;28;20211;-73
2022/09/16 03:36:34;;;;;;;4.32;1.77;;;11.60;99.90;;;;;;4996727;28;20224;-74
2022/09/16 03:39:02;;;;;;;5.55;2.25;;;11.70;99.90;;;;;;5017746;28;20267;-74
2022/09/16 03:41:31;;;;;;;2.55;2.08;;;11.70;99.90;;;;;;5019047;28;20201;-72
2022/09/16 03:44:05;;;;;;;4.57;1.60;;;11.70;99.90;;;;;;5030144;28;20203;-73
2022/09/16 03:46:32;;;;;;;4.88;1.70;;;11.70;99.90;;;;;;5021941;28;20249;-72
2022/09/16 03:49:01;;;;;;;4.25;2.10;;;11.70;99.90;;;;;;5017091;28;20735;-73
2022/09/16 03:51:28;;;;;;;3.15;2.85;;;11.80;99.90;;;;;;5004802;28;20241;-73
2022/09/16 03:53:55;;;;;;;4.80;1.88;;;11.80;99.90;;;;;;5014686;28;20206;-74
2022/09/16 03:56:23;;;;;;;7.72;2.13;;;11.80;99.90;;;;;;5033745;28;20265;-73
2022/09/16 03:58:50;;;;;;;6.78;1.90;;;11.80;99.90;;;;;;5022561;28;20204;-73
2022/09/16 04:01:17;;;;;;;2.90;1.67;;;11.80;99.90;;;;;;5017307;28;20308;-74
2022/09/16 04:03:44;;;;;;;1.95;1.20;;;11.80;99.90;;;;;;5004034;28;20201;-73
2022/09/16 04:06:13;;;;;;;6.72;1.70;;;11.80;99.90;;;;;;4999796;28;20233;-73
2022/09/16 04:08:40;;;;;;;4.03;1.50;;;11.80;99.90;;;;;;5010831;28;20308;-72
2022/09/16 04:11:08;;;;;;;2.90;1.60;;;11.80;99.90;;;;;;5003248;28;20289;-74
2022/09/16 04:13:36;;;;;;;7.82;1.50;;;11.80;99.90;;;;;;5008869;28;20373;-74
2022/09/16 04:16:04;;;;;;;6.32;1.90;;;11.70;99.90;;;;;;5006351;28;20209;-75
2022/09/16 04:18:31;;;;;;;8.65;1.92;;;11.70;99.90;;;;;;5000399;28;20253;-75
2022/09/16 04:20:59;;;;;;;7.22;1.88;;;11.60;99.90;;;;;;5008163;28;20205;-74
2022/09/16 04:23:28;;;;;;;5.07;2.83;;;11.60;99.90;;;;;;5004558;28;20202;-75
2022/09/16 04:25:56;;;;;;;4.88;2.25;;;11.60;99.90;;;;;;5003937;28;20296;-75
2022/09/16 04:28:23;;;;;;;6.40;2.35;;;11.50;99.90;;;;;;5012453;28;20224;-73
2022/09/16 04:30:50;;;;;;;5.05;2.67;;;11.50;99.90;;;;;;5000516;28;20260;-75
2022/09/16 04:33:17;;;;;;;4.90;1.73;;;11.60;99.90;;;;;;5010718;28;20209;-74
2022/09/16 04:35:45;;;;;;;4.05;1.58;;;11.60;99.90;;;;;;5006679;28;20207;-75
2022/09/16 04:38:12;;;;;;;5.30;2.35;;;11.70;99.90;;;;;;5006076;28;20716;-75
2022/09/16 04:40:40;;;;;;;3.22;1.95;;;11.60;99.90;;;;;;5009600;28;20260;-74
2022/09/16 04:43:08;;;;;;;3.60;2.30;;;11.60;99.90;;;;;;5016603;28;20226;-74
2022/09/16 04:45:35;;;;;;;5.75;3.17;;;11.60;99.90;;;;;;5031069;28;20214;-73
2022/09/16 04:48:02;;;;;;;6.70;2.67;;;11.60;99.90;;;;;;5014799;28;20258;-74
2022/09/16 04:50:29;;;;;;;4.82;2.22;;;11.50;99.90;;;;;;5014515;28;20246;-74
2022/09/16 04:52:56;;;;;;;6.88;2.08;;;11.60;99.90;;;;;;5012653;28;20197;-74
2022/09/16 04:55:23;;;;;;;2.90;2.10;;;11.60;99.90;;;;;;5012368;28;20669;-75
2022/09/16 04:57:51;;;;;;;4.15;2.63;;;11.60;99.90;;;;;;5017450;28;20227;-74
2022/09/16 05:00:18;;;;;;;2.97;1.33;;;11.60;99.90;;;;;;5011132;28;20197;-75
2022/09/16 05:02:48;;;;;;;4.60;1.95;;;11.60;99.90;;;;;;5002703;28;20296;-74
2022/09/16 05:05:16;;;;;;;10.27;1.98;;;11.60;99.90;;;;;;5017849;28;20237;-74
2022/09/16 05:07:43;;;;;;;10.57;3.58;;;11.60;99.90;;;;;;5007265;28;20224;-75
2022/09/16 05:10:10;;;;;;;2.58;1.92;;;11.50;99.90;;;;;;5011678;28;20230;-74
2022/09/16 05:12:38;;;;;;;1.92;1.40;;;11.50;99.90;;;;;;5008372;28;20212;-75
2022/09/16 05:15:08;;;;;;;8.30;2.03;;;11.60;99.90;;;;;;5003263;28;20203;-74
2022/09/16 05:17:35;;;;;;;6.00;2.03;;;11.40;99.90;;;;;;5005530;28;20243;-74
2022/09/16 05:20:02;;;;;;;7.10;1.92;;;11.40;99.90;;;;;;5003000;28;20234;-75
2022/09/16 05:22:29;;;;;;;7.70;2.25;;;11.40;99.90;;;;;;5010376;28;20209;-74
2022/09/16 05:24:56;;;;;;;7.50;1.70;;;11.40;99.90;;;;;;5008733;28;20741;-74
2022/09/16 05:27:26;;;;;;;6.38;2.28;;;11.40;99.90;;;;;;5009040;28;20312;-75
2022/09/16 05:29:53;;;;;;;3.42;1.67;;;11.40;99.90;;;;;;5012402;28;20228;-73
2022/09/16 05:32:21;;;;;;;3.55;2.47;;;11.40;99.90;;;;;;5002972;28;20228;-74
2022/09/16 05:34:49;;;;;;;4.28;1.70;;;11.40;99.90;;;;;;5002976;28;20715;-73
2022/09/16 05:37:16;;;;;;;6.97;2.10;;;11.50;99.90;;;;;;4997197;28;20221;-74
2022/09/16 05:39:43;;;;;;;3.65;2.38;;;11.60;99.90;;;;;;5015042;28;20284;-74
2022/09/16 05:42:11;;;;;;;5.30;2.25;;;11.50;99.90;;;;;;5018769;28;20202;-74
2022/09/16 05:44:38;;;;;;;4.35;2.22;;;11.60;99.90;;;;;;5009362;28;20385;-74
2022/09/16 05:47:05;;;;;;;4.20;1.58;;;11.60;99.90;;;;;;5011011;28;20269;-75
2022/09/16 05:49:36;;;;;;;3.05;1.60;;;11.70;99.90;;;;;;5002772;28;20219;-77
2022/09/16 05:52:03;;;;;;;5.45;1.50;;;11.70;99.90;;;;;;5003490;28;20593;-74
2022/09/16 05:54:30;;;;;;;4.32;1.55;;;11.80;99.90;;;;;;5006781;28;20209;-72
2022/09/16 05:56:57;;;;;;;8.45;2.80;;;11.80;99.90;;;;;;5000125;28;20233;-74
2022/09/16 05:59:24;;;;;;;5.93;3.85;;;11.90;99.90;;;;;;5006730;28;20252;-72
2022/09/16 06:01:51;;;;;;;7.97;2.38;;;12.00;99.90;;;;;;5007504;28;20233;-75
2022/09/16 06:04:17;;;;;;;4.95;1.80;;;12.10;99.90;;;;;;5001853;28;20283;-75
2022/09/16 06:06:47;;;;;;;7.32;2.15;;;12.50;99.90;;;;;;5007743;28;20234;-75
2022/09/16 06:09:16;;;;;;;6.75;1.85;;;13.20;99.90;;;;;;5014068;28;20251;-75
2022/09/16 06:11:45;;;;;;;3.83;1.70;;;14.00;99.90;;;;;;5019044;28;20280;-75
2022/09/16 06:14:13;;;;;;;4.45;0.90;;;14.90;99.90;;;;;;5012130;28;20209;-75
2022/09/16 06:16:41;;;;;;;5.80;2.10;;;15.60;99.90;;;;;;5013566;28;20251;-73
2022/09/16 06:19:12;;;;;;;4.90;2.20;;;16.50;99.90;;;;;;5013681;28;20879;-74
2022/09/16 06:21:42;;;;;;;5.93;2.80;;;17.40;99.90;;;;;;5018610;28;20449;-76
2022/09/16 06:24:11;;;;;;;5.37;1.40;;;18.20;99.90;;;;;;5019416;28;20522;-77
2022/09/16 06:26:41;;;;;;;4.83;1.23;;;18.10;99.90;;;;;;5030932;28;20535;-76
2022/09/16 06:29:09;;;;;;;5.60;1.40;;;18.10;99.90;;;;;;5015128;28;20452;-74
2022/09/16 06:31:37;;;;;;;4.57;1.60;;;18.40;99.90;;;;;;5025346;28;20467;-73
2022/09/16 06:34:16;;;;;;;6.97;1.43;;;18.60;99.90;;;;;;5025293;28;20560;-73
2022/09/16 06:36:44;;;;;;;7.53;1.80;;;19.10;99.90;;;;;;5025283;28;20514;-71
2022/09/16 06:39:13;;;;;;;2.70;1.63;;;19.50;99.90;;;;;;5026932;28;20498;-74
2022/09/16 06:41:40;;;;;;;3.70;1.97;;;20.10;99.90;;;;;;5020810;28;20478;-73
2022/09/16 06:44:10;;;;;;;4.70;1.83;;;20.80;99.90;;;;;;5021554;28;20443;-73
2022/09/16 06:46:38;;;;;;;4.23;1.23;;;21.40;99.40;;;;;;5021715;28;20484;-73
2022/09/16 06:49:05;;;;;;;5.10;1.37;;;21.10;96.90;;;;;;5018507;28;20452;-74
2022/09/16 06:51:35;;;;;;;3.83;1.40;;;21.40;97.10;;;;;;5015262;28;20455;-73
2022/09/16 06:54:04;;;;;;;5.90;1.13;;;21.90;95.90;;;;;;5019380;28;20440;-74
2022/09/16 06:56:37;;;;;;;4.00;1.37;;;21.70;94.80;;;;;;5011043;28;20449;-73
2022/09/16 06:59:05;;;;;;;5.50;1.27;;;21.60;95.50;;;;;;5011207;28;20570;-76
2022/09/16 07:01:32;;;;;;;2.37;0.90;;;21.80;94.30;;;;;;5011303;28;20534;-76
2022/09/16 07:04:04;;;;;;;4.17;1.10;;;21.90;94.10;;;;;;5005039;28;20510;-74
2022/09/16 07:06:31;;;;;;;4.17;1.30;;;22.40;93.50;;;;;;5020381;28;20508;-76
2022/09/16 07:09:01;;;;;;;7.50;1.67;;;22.90;92.70;;;;;;5022006;28;20498;-75
2022/09/16 07:11:31;;;;;;;5.67;2.20;;;22.90;92.20;;;;;;5011089;28;20476;-74
2022/09/16 07:13:59;;;;;;;5.97;1.50;;;23.60;91.10;;;;;;5018166;28;20805;-74
2022/09/16 07:16:27;;;;;;;3.63;1.30;;;24.00;89.40;;;;;;5015512;28;20447;-75
2022/09/16 07:18:54;;;;;;;7.50;1.33;;;23.00;90.60;;;;;;5007563;28;20448;-74
2022/09/16 07:21:27;;;;;;;5.13;2.60;;;22.50;90.40;;;;;;5010867;28;20526;-74
2022/09/16 07:23:58;;;;;;;7.20;1.70;;;22.60;91.50;;;;;;5014770;28;20449;-74
2022/09/16 07:26:27;;;;;;;3.70;1.60;;;23.10;91.00;;;;;;5016980;28;20432;-75
2022/09/16 07:28:55;;;;;;;11.03;6.30;;;22.60;90.50;;;;;;5016757;28;20444;-74
2022/09/16 07:31:25;;;;;;;5.70;1.90;;;22.50;90.40;;;;;;5019040;28;20534;-75
2022/09/16 07:34:09;;;;;;;3.93;1.17;;;22.50;90.90;;;;;;5030250;28;20452;-75
2022/09/16 07:36:39;;;;;;;4.37;1.90;;;22.70;90.90;;;;;;5037269;28;20475;-74
2022/09/16 07:39:15;;;;;;;2.33;1.20;;;23.30;90.20;;;;;;5016652;28;20440;-76
2022/09/16 07:41:47;;;;;;;5.20;1.80;;;23.10;90.20;;;;;;5029745;28;20499;-73
2022/09/16 07:44:16;;;;;;;6.00;1.40;;;23.80;89.30;;;;;;5019898;28;20436;-74
2022/09/16 07:46:49;;;;;;;5.77;1.30;;;23.90;86.20;;;;;;5016178;28;21014;-77
2022/09/16 07:49:17;;;;;;;10.30;1.60;;;24.10;85.50;;;;;;5016225;28;20485;-75
2022/09/16 07:51:44;;;;;;;8.57;1.97;;;23.40;87.70;;;;;;5021825;28;20993;-75
2022/09/16 07:54:14;;;;;;;4.93;1.50;;;23.80;87.10;;;;;;5020731;28;20452;-75
2022/09/16 07:56:42;;;;;;;7.00;1.87;;;24.10;86.30;;;;;;5014308;28;20949;-73
2022/09/16 07:59:13;;;;;;;5.47;1.80;;;24.80;86.60;;;;;;5013983;28;20459;-76
2022/09/16 08:01:40;;;;;;;9.57;1.70;;;24.50;83.80;;;;;;5007347;28;20452;-74
2022/09/16 08:04:08;;;;;;;7.17;1.50;;;24.50;83.50;;;;;;5012725;28;20472;-73
2022/09/16 08:06:38;;;;;;;3.70;1.77;;;24.30;82.90;;;;;;5016442;28;20487;-72
2022/09/16 08:09:06;;;;;;;5.80;2.10;;;24.80;83.10;;;;;;5016155;28;20459;-74
2022/09/16 08:11:33;;;;;;;4.00;1.20;;;25.00;82.20;;;;;;5010025;28;20506;-74
2022/09/16 08:14:01;;;;;;;4.57;1.30;;;25.50;80.80;;;;;;5015196;28;20436;-71
2022/09/16 08:16:37;;;;;;;5.03;1.37;;;25.30;79.70;;;;;;5018532;28;21039;-74
2022/09/16 08:19:04;;;;;;;5.90;1.60;;;25.40;80.00;;;;;;5013237;28;20455;-74
2022/09/16 08:21:32;;;;;;;7.83;2.33;;;25.30;78.90;;;;;;5012907;28;20443;-74
2022/09/16 08:23:59;;;;;;;6.10;1.97;;;25.00;79.50;;;;;;5024856;28;20440;-74
2022/09/16 08:26:27;;;;;;;4.70;1.73;;;25.10;79.90;;;;;;5015407;28;20482;-77
2022/09/16 08:28:53;;;;;;;5.40;1.60;;;24.80;79.50;;;;;;5019845;28;20452;-75
2022/09/16 08:31:23;;;;;;;2.90;1.30;;;24.50;80.30;;;;;;5022061;28;20472;-74
2022/09/16 08:33:51;;;;;;;4.43;1.40;;;23.60;80.70;;;;;;5001490;28;20470;-75
2022/09/16 08:36:20;;;;;;;4.73;1.60;;;24.40;82.80;;;;;;5015679;28;20440;-73
2022/09/16 08:38:51;;;;;;;5.83;2.13;;;24.70;80.90;;;;;;5003068;28;20467;-75
2022/09/16 08:41:33;;;;;;;4.73;1.30;;;24.50;79.20;;;;;;5012816;28;20440;-76
2022/09/16 08:44:11;;;;;;;7.53;1.60;;;24.20;79.60;;;;;;5012605;28;20782;-76
2022/09/16 08:46:47;;;;;;;7.40;2.00;;;24.30;80.80;;;;;;5004767;28;20569;-74
2022/09/16 08:49:21;;;;;;;13.13;3.17;;;24.60;81.00;;;;;;5017651;28;20910;-74
2022/09/16 08:51:49;;;;;;;5.43;2.00;;;25.90;78.70;;;;;;4987415;28;20460;-71
2022/09/16 08:54:27;;;;;;;11.10;2.67;;;26.20;76.10;;;;;;5012794;28;20463;-74
2022/09/16 08:56:57;;;;;;;10.00;2.40;;;25.20;76.50;;;;;;5004103;28;21403;-75
2022/09/16 08:59:27;;;;;;;5.23;2.00;;;25.20;77.70;;;;;;5016350;28;20467;-74
2022/09/16 09:02:19;;;;;;;5.63;2.80;;;25.50;78.10;;;;;;5015355;28;20440;-77
2022/09/16 09:04:45;;;;;;;4.60;2.03;;;26.30;76.20;;;;;;5007057;28;20475;-72
2022/09/16 09:07:24;;;;;;;5.00;1.83;;;26.80;73.10;;;;;;5016730;28;20486;-76
2022/09/16 09:10:01;;;;;;;6.17;2.30;;;26.90;72.40;;;;;;5003850;28;20439;-72
2022/09/16 09:12:35;;;;;;;6.30;1.80;;;26.20;70.80;;;;;;5014370;28;20526;-72
2022/09/16 09:15:13;;;;;;;5.77;1.97;;;26.60;72.20;;;;;;4996132;28;20797;-75
2022/09/16 09:17:53;;;;;;;5.73;1.73;;;26.30;71.50;;;;;;5001750;28;20448;-73
2022/09/16 09:20:31;;;;;;;4.83;2.17;;;26.40;70.00;;;;;;5001689;28;20431;-72
2022/09/16 09:23:19;;;;;;;5.90;2.27;;;25.10;70.80;;;;;;5025366;28;20479;-72
2022/09/16 09:25:56;;;;;;;6.53;1.73;;;25.00;73.30;;;;;;4992731;28;20455;-75
2022/09/16 09:28:55;;;;;;;19.53;2.90;;;25.60;72.90;;;;;;5001926;28;20550;-74
2022/09/16 09:31:29;;;;;;;5.17;2.10;;;25.40;69.90;;;;;;5002280;28;20997;-73
2022/09/16 09:34:05;;;;;;;5.67;2.03;;;25.50;70.10;;;;;;4998792;28;20440;-73
2022/09/16 09:36:44;;;;;;;6.53;1.80;;;25.60;69.40;;;;;;4999399;28;20487;-74
2022/09/16 09:39:29;;;;;;;8.90;2.07;;;25.90;69.20;;;;;;5016816;28;20555;-73
2022/09/16 09:42:04;;;;;;;11.30;2.27;;;25.50;69.80;;;;;;5002970;28;20439;-73
2022/09/16 09:44:41;;;;;;;7.33;2.70;;;25.20;72.00;;;;;;4998909;28;20454;-73
2022/09/16 09:47:15;;;;;;;3.97;1.80;;;24.40;72.80;;;;;;5002730;28;20497;-75
2022/09/16 09:49:46;;;;;;;7.33;2.03;;;24.40;73.80;;;;;;5018049;28;20454;-75
2022/09/16 09:52:18;;;;;;;7.03;2.10;;;24.30;74.00;;;;;;5015051;28;21013;-74
2022/09/16 09:54:49;;;;;;;6.57;2.60;;;24.30;73.90;;;;;;5006646;28;20479;-77
2022/09/16 09:57:24;;;;;;;4.80;1.60;;;23.60;74.20;;;;;;5015848;28;20472;-74
2022/09/16 09:59:58;;;;;;;4.80;1.93;;;23.30;74.80;;;;;;5016391;28;20507;-73
2022/09/16 10:02:25;;;;;;;7.33;1.87;;;23.60;75.20;;;;;;5027405;28;20828;-74
2022/09/16 10:04:52;;;;;;;8.83;1.70;;;23.50;75.30;;;;;;5016155;28;20443;-74
2022/09/16 10:07:24;;;;;;;6.37;1.97;;;22.80;76.60;;;;;;5017264;28;20485;-78
2022/09/16 10:09:56;;;;;;;8.53;2.40;;;21.90;80.60;;;;;;5006894;28;20545;-75
2022/09/16 10:12:30;;;;;;;8.43;1.87;;;21.10;83.80;;;;;;5018923;28;20478;-71
2022/09/16 10:15:03;;;;;;;9.10;3.20;;;20.30;86.20;;;;;;5017487;28;20504;-74
2022/09/16 10:17:32;;;;;;;10.93;2.30;;;20.00;88.10;;;;;;5006913;28;20485;-75
2022/09/16 10:20:04;;;;;;;7.43;1.27;;;20.20;86.10;;;;;;5018038;28;20502;-73
2022/09/16 10:22:33;;;;;;;7.47;1.57;;;20.20;87.10;;;;;;5013566;28;20466;-72
2022/09/16 10:25:02;;;;;;;11.40;2.43;;;20.80;85.90;;;;;;5018213;28;20447;-74
2022/09/16 10:27:34;;;;;;;4.70;1.63;;;21.20;85.20;;;;;;5005648;28;20519;-73
2022/09/16 10:30:10;;;;;;;6.53;1.67;;;22.10;83.50;;;;;;5013720;28;20442;-73
2022/09/16 10:32:46;;;;;;;4.90;1.70;;;21.80;81.40;;;;;;5016479;28;20530;-72
2022/09/16 10:35:19;;;;;;;8.43;1.80;;;21.20;83.20;;;;;;4997609;28;20890;-75
2022/09/16 10:37:51;;;;;;;7.63;2.30;;;20.90;84.80;;;;;;4999647;28;20982;-73
2022/09/16 10:40:22;;;;;;;7.80;2.27;;;21.20;84.10;;;;;;5013288;28;20471;-74
2022/09/16 10:42:51;;;;;;;5.70;1.70;;;21.10;82.80;;;;;;5020664;28;20953;-73
2022/09/16 10:45:27;;;;;;;7.70;1.90;;;21.20;82.00;;;;;;5005401;28;20533;-74
2022/09/16 10:47:56;;;;;;;7.20;2.03;;;21.30;81.80;;;;;;5005303;28;20876;-75
2022/09/16 10:50:24;;;;;;;5.50;1.50;;;20.90;81.50;;;;;;5011942;28;20932;-73
2022/09/16 10:52:52;;;;;;;6.00;2.30;;;20.40;81.70;;;;;;5010352;28;20984;-71
2022/09/16 10:55:27;;;;;;;8.67;1.73;;;19.70;82.10;;;;;;5015232;28;20828;-72
2022/09/16 10:58:07;;;;;;;3.83;1.50;;;19.80;83.30;;;;;;5001124;28;20475;-72
2022/09/16 11:00:40;;;;;;;5.70;1.07;;;19.80;82.10;;;;;;5009229;28;20820;-74
2022/09/16 11:03:41;;;;;;;9.17;1.47;;;19.80;82.30;;;;;;5016587;28;20537;-72
2022/09/16 11:06:28;;;;;;;2.20;0.97;;;20.10;82.30;;;;;;5022833;28;20450;-73
2022/09/16 11:09:05;;;;;;;10.53;3.43;;;19.90;81.70;;;;;;5007282;28;20478;-70
2022/09/16 11:11:55;;;;;;;4.30;1.13;;;19.80;81.50;;;;;;5009960;28;20546;-74
2022/09/16 11:14:39;;;;;;;4.83;1.60;;;19.50;81.30;;;;;;5007348;28;20458;-74
2022/09/16 11:17:30;;;;;;;2.90;1.10;;;19.40;83.00;;;;;;5012139;28;20554;-72
2022/09/16 11:20:28;;;;;;;4.03;1.47;;;19.40;84.10;;;;;;5006364;28;20476;-74
2022/09/16 11:23:03;;;;;;;4.70;1.83;;;19.40;83.20;;;;;;4995274;28;20472;-72
2022/09/16 11:25:38;;;;;;;2.47;1.03;;;19.60;83.00;;;;;;5005334;28;20484;-73
2022/09/16 11:28:38;;;;;;;7.00;1.67;;;19.90;81.80;;;;;;4994630;28;20467;-73
2022/09/16 11:31:16;;;;;;;3.50;1.30;;;20.00;81.40;;;;;;4998577;28;20520;-72
2022/09/16 11:33:56;;;;;;;4.20;1.47;;;19.90;80.30;;;;;;5012548;28;20497;-73
2022/09/16 11:36:40;;;;;;;9.47;0.97;;;19.60;80.90;;;;;;4992888;28;20542;-73
2022/09/16 11:39:26;;;;;;;4.00;1.33;;;19.50;82.00;;;;;;5009290;28;20471;-72
2022/09/16 11:42:02;;;;;;;8.07;1.47;;;19.70;82.10;;;;;;5010963;28;20476;-72
2022/09/16 11:44:54;;;;;;;4.83;1.47;;;19.60;82.10;;;;;;5014734;28;20476;-72
2022/09/16 11:47:37;;;;;;;6.10;1.67;;;19.50;83.00;;;;;;5012215;28;20487;-73
2022/09/16 11:50:16;;;;;;;5.60;2.47;;;19.00;85.50;;;;;;5008556;28;20501;-73
2022/09/16 11:53:04;;;;;;;8.33;1.70;;;18.40;93.50;;;;;;4996665;28;20980;-75
2022/09/16 11:55:44;;;;;;;6.23;1.53;;;17.50;98.70;;;;;;5010522;28;20623;-74
2022/09/16 11:58:27;;;;;;;12.57;1.70;;;17.00;99.90;;;;;;5011325;28;20561;-73
2022/09/16 12:01:00;;;;;;;7.95;2.50;;;16.70;99.90;;;;;;5000667;28;20467;-75
2022/09/16 12:03:35;;;;;;;5.50;1.30;;;16.60;99.90;;;;;;4991150;28;20201;-73
2022/09/16 12:06:10;;;;;;;4.45;1.80;;;16.60;99.90;;;;;;4997847;28;20458;-74
2022/09/16 12:08:52;;;;;;;8.38;2.00;;;16.60;99.90;;;;;;4998670;28;20230;-74
2022/09/16 12:11:25;;;;;;;5.43;1.60;;;16.70;99.90;;;;;;5008608;28;20227;-74
2022/09/16 12:13:59;;;;;;;6.87;2.23;;;16.90;99.90;;;;;;4998603;28;20554;-77
2022/09/16 12:16:42;;;;;;;5.80;1.57;;;17.20;99.90;;;;;;4996435;28;20440;-75
2022/09/16 12:19:16;;;;;;;8.23;2.30;;;17.40;99.90;;;;;;5010762;28;21038;-71
2022/09/16 12:21:48;;;;;;;9.23;2.10;;;17.50;98.30;;;;;;5022722;28;20468;-76
2022/09/16 12:24:20;;;;;;;4.27;1.40;;;17.80;97.50;;;;;;5030340;28;20440;-69
2022/09/16 12:26:52;;;;;;;8.60;2.67;;;18.20;96.20;;;;;;5019585;28;20488;-74
2022/09/16 12:29:28;;;;;;;5.60;1.87;;;18.30;95.20;;;;;;5006433;28;20452;-72
2022/09/16 12:31:59;;;;;;;7.00;2.23;;;18.40;94.50;;;;;;5010329;28;20477;-72
2022/09/16 12:34:40;;;;;;;12.47;2.97;;;18.30;94.60;;;;;;5019749;28;20448;-72
2022/09/16 12:37:20;;;;;;;7.83;1.70;;;18.30;94.20;;;;;;5005825;28;21041;-73
2022/09/16 12:39:48;;;;;;;5.37;1.73;;;18.40;94.40;;;;;;4991043;28;20547;-75
2022/09/16 12:42:47;;;;;;;12.57;2.10;;;18.30;94.20;;;;;;5014888;28;20455;-73
2022/09/16 12:45:31;;;;;;;7.33;1.87;;;18.20;94.50;;;;;;5004024;28;20443;-72
2022/09/16 12:48:23;;;;;;;5.53;1.60;;;18.20;95.00;;;;;;5000647;28;20475;-71
2022/09/16 12:51:07;;;;;;;6.23;1.63;;;17.90;95.60;;;;;;4979963;28;20448;-72
2022/09/16 12:54:01;;;;;;;6.77;2.53;;;18.20;95.60;;;;;;5019658;28;20571;-72
2022/09/16 12:57:05;;;;;;;6.50;1.60;;;18.30;95.00;;;;;;4988038;28;20464;-72
2022/09/16 12:59:48;;;;;;;5.97;1.93;;;18.40;95.00;;;;;;5007904;28;20878;-72
2022/09/16 13:02:18;;;;;;;7.10;1.80;;;18.50;94.80;;;;;;4985998;28;20973;-74
2022/09/16 13:04:48;;;;;;;15.53;2.00;;;18.70;94.40;;;;;;4999016;28;20451;-73
2022/09/16 13:07:24;;;;;;;10.53;1.73;;;18.80;93.30;;;;;;5014580;28;20472;-71
2022/09/16 13:10:00;;;;;;;10.47;3.63;;;18.90;92.50;;;;;;4994386;28;20515;-73
2022/09/16 13:12:29;;;;;;;7.60;2.00;;;19.00;92.10;;;;;;5010967;28;20562;-74
2022/09/16 13:14:58;;;;;;;11.30;2.43;;;19.00;91.80;;;;;;5013067;28;20452;-72
2022/09/16 13:17:30;;;;;;;8.53;2.30;;;19.20;91.90;;;;;;5011759;28;21020;-73